createdAt,value
2022-09-22T00:00:09.772Z,10.18
2022-09-22T00:02:36.451Z,5.60
2022-09-22T00:05:03.848Z,5.60
2022-09-22T00:07:30.559Z,4.13
2022-09-22T00:09:57.289Z,5.30
2022-09-22T00:12:24.040Z,4.82
2022-09-22T00:14:50.742Z,5.05
2022-09-22T00:17:17.425Z,6.43
2022-09-22T00:19:44.109Z,5.28
2022-09-22T00:22:10.778Z,7.55
2022-09-22T00:24:37.482Z,5.22
2022-09-22T00:27:04.187Z,6.72
2022-09-22T00:29:31.057Z,8.27
2022-09-22T00:31:57.946Z,5.47
2022-09-22T00:34:27.420Z,8.40
2022-09-22T00:36:54.780Z,8.40
2022-09-22T00:39:22.060Z,12.10
2022-09-22T00:41:51.126Z,9.73
2022-09-22T00:44:26.981Z,6.60
2022-09-22T00:47:13.954Z,10.27
2022-09-22T00:50:05.583Z,6.28
2022-09-22T00:52:35.339Z,7.22
2022-09-22T00:55:07.097Z,6.95
2022-09-22T00:57:37.038Z,6.38
2022-09-22T01:00:07.659Z,7.53
2022-09-22T01:02:34.636Z,7.45
2022-09-22T01:05:01.351Z,8.10
2022-09-22T01:07:31.079Z,6.85
2022-09-22T01:09:58.991Z,6.40
2022-09-22T01:12:31.749Z,7.53
2022-09-22T01:18:20.004Z,6.80
2022-09-22T01:26:49.472Z,5.90
2022-09-22T01:29:22.018Z,8.88
2022-09-22T01:32:02.882Z,10.88
2022-09-22T01:34:34.021Z,7.25
2022-09-22T01:37:09.812Z,8.27
2022-09-22T01:39:54.808Z,6.47
2022-09-22T01:42:33.896Z,7.65
2022-09-22T01:45:09.922Z,7.47
2022-09-22T01:47:52.303Z,8.57
2022-09-22T01:50:32.671Z,6.55
2022-09-22T01:53:05.279Z,9.60
2022-09-22T01:55:35.859Z,9.63
2022-09-22T01:58:07.600Z,11.82
2022-09-22T02:00:39.519Z,8.00
2022-09-22T02:03:18.976Z,8.13
2022-09-22T02:05:50.954Z,7.45
2022-09-22T02:08:24.696Z,6.55
2022-09-22T02:10:53.848Z,9.25
2022-09-22T02:13:20.605Z,6.95
2022-09-22T02:16:02.425Z,6.85
2022-09-22T02:18:39.788Z,8.70
2022-09-22T02:21:06.568Z,10.20
2022-09-22T02:23:33.427Z,8.10
2022-09-22T02:26:03.074Z,8.70
2022-09-22T02:28:32.674Z,7.68
2022-09-22T02:31:19.686Z,6.63
2022-09-22T02:33:48.198Z,6.80
2022-09-22T02:36:26.230Z,7.65
2022-09-22T02:38:55.950Z,8.18
2022-09-22T02:41:45.812Z,7.53
2022-09-22T02:44:21.955Z,7.03
2022-09-22T02:47:06.280Z,6.72
2022-09-22T02:49:33.261Z,8.68
2022-09-22T02:52:00.243Z,8.25
2022-09-22T02:54:27.028Z,8.18
2022-09-22T02:56:54.280Z,6.15
2022-09-22T02:59:21.261Z,8.18
2022-09-22T03:01:48.629Z,7.18
2022-09-22T03:04:16.358Z,8.57
2022-09-22T03:06:43.032Z,7.68
2022-09-22T03:09:09.748Z,8.98
2022-09-22T03:11:36.464Z,7.50
2022-09-22T03:14:03.220Z,6.57
2022-09-22T03:16:30.048Z,9.15
2022-09-22T03:18:57.522Z,7.22
2022-09-22T03:21:24.298Z,8.45
2022-09-22T03:23:50.983Z,7.70
2022-09-22T03:26:17.810Z,6.88
2022-09-22T03:28:44.478Z,7.00
2022-09-22T03:31:12.135Z,8.02
2022-09-22T03:33:39.130Z,11.50
2022-09-22T03:36:06.191Z,9.70
2022-09-22T03:38:33.061Z,8.68
2022-09-22T03:41:02.376Z,7.47
2022-09-22T03:43:29.156Z,7.65
2022-09-22T03:45:58.668Z,6.22
2022-09-22T03:48:27.561Z,8.98
2022-09-22T03:50:54.432Z,8.07
2022-09-22T03:53:21.305Z,7.50
2022-09-22T03:55:48.132Z,6.35
2022-09-22T03:58:15.234Z,8.05
2022-09-22T04:00:41.968Z,7.05
2022-09-22T04:03:09.066Z,8.05
2022-09-22T04:05:35.896Z,8.75
2022-09-22T04:08:02.586Z,7.55
2022-09-22T04:10:29.249Z,8.55
2022-09-22T04:12:55.963Z,9.43
2022-09-22T04:15:22.607Z,8.13
2022-09-22T04:17:49.427Z,7.72
2022-09-22T04:20:16.988Z,7.85
2022-09-22T04:22:43.743Z,7.70
2022-09-22T04:25:10.771Z,8.55
2022-09-22T04:27:37.442Z,7.78
2022-09-22T04:30:06.015Z,8.00
2022-09-22T04:32:32.901Z,7.50
2022-09-22T04:34:59.606Z,7.10
2022-09-22T04:37:26.332Z,7.85
2022-09-22T04:39:54.824Z,7.85
2022-09-22T04:42:21.934Z,8.18
2022-09-22T04:44:48.588Z,9.82
2022-09-22T04:47:15.214Z,7.07
2022-09-22T04:49:42.057Z,11.00
2022-09-22T04:52:09.730Z,10.48
2022-09-22T04:54:36.430Z,6.78
2022-09-22T04:57:03.230Z,6.65
2022-09-22T04:59:29.883Z,7.20
2022-09-22T05:01:56.742Z,6.68
2022-09-22T05:04:23.467Z,9.38
2022-09-22T05:07:17.195Z,7.47
2022-09-22T05:09:43.841Z,7.60
2022-09-22T05:12:10.489Z,9.02
2022-09-22T05:14:37.467Z,8.63
2022-09-22T05:17:04.683Z,7.28
2022-09-22T05:19:31.385Z,9.57
2022-09-22T05:21:58.151Z,9.77
2022-09-22T05:24:25.214Z,8.48
2022-09-22T05:26:52.295Z,9.20
2022-09-22T05:29:18.964Z,9.18
2022-09-22T05:31:48.858Z,7.93
2022-09-22T05:34:15.632Z,9.43
2022-09-22T05:36:42.660Z,7.80
2022-09-22T05:39:09.684Z,7.93
2022-09-22T05:41:36.361Z,8.82
2022-09-22T05:44:03.238Z,8.65
2022-09-22T05:46:29.895Z,7.47
2022-09-22T05:48:56.713Z,10.23
2022-09-22T05:51:23.482Z,8.10
2022-09-22T05:53:50.167Z,7.25
2022-09-22T05:56:16.898Z,11.18
2022-09-22T05:58:43.619Z,8.25
2022-09-22T06:01:12.342Z,9.48
2022-09-22T06:03:39.202Z,8.27
2022-09-22T06:06:06.059Z,7.80
2022-09-22T06:08:33.016Z,8.35
2022-09-22T06:10:59.759Z,7.00
2022-09-22T06:13:26.441Z,8.98
2022-09-22T06:15:53.158Z,9.85
2022-09-22T06:18:24.393Z,7.68
2022-09-22T06:20:52.379Z,7.47
2022-09-22T06:23:19.204Z,9.90
2022-09-22T06:25:45.937Z,7.60
2022-09-22T06:28:14.698Z,6.93
2022-09-22T06:30:41.840Z,6.22
2022-09-22T06:33:10.209Z,8.10
2022-09-22T06:35:37.807Z,7.00
2022-09-22T06:38:06.499Z,7.60
2022-09-22T06:40:36.563Z,7.00
2022-09-22T06:43:07.740Z,7.65
2022-09-22T06:45:34.624Z,8.05
2022-09-22T06:48:03.467Z,6.47
2022-09-22T06:50:33.339Z,6.72
2022-09-22T06:53:04.337Z,6.03
2022-09-22T06:55:31.655Z,9.60
2022-09-22T06:57:59.132Z,6.40
2022-09-22T07:00:33.377Z,5.72
2022-09-22T07:03:26.460Z,9.48
2022-09-22T07:06:01.392Z,7.00
2022-09-22T07:08:30.283Z,5.32
2022-09-22T07:10:59.843Z,6.18
2022-09-22T07:13:30.072Z,6.70
2022-09-22T07:16:05.279Z,6.68
2022-09-22T07:18:32.100Z,10.02
2022-09-22T07:21:03.250Z,5.75
2022-09-22T07:23:30.023Z,6.88
2022-09-22T07:25:57.227Z,8.55
2022-09-22T07:28:26.054Z,5.43
2022-09-22T07:30:52.900Z,6.25
2022-09-22T07:33:20.425Z,5.55
2022-09-22T07:35:47.263Z,9.43
2022-09-22T07:38:14.041Z,4.43
2022-09-22T07:40:40.775Z,5.80
2022-09-22T07:43:07.558Z,9.30
2022-09-22T07:45:34.303Z,4.25
2022-09-22T07:48:19.674Z,4.85
2022-09-22T07:50:54.296Z,4.85
2022-09-22T07:53:21.237Z,4.28
2022-09-22T07:55:48.572Z,4.93
2022-09-22T07:58:17.398Z,4.43
2022-09-22T08:00:44.549Z,5.03
2022-09-22T08:03:11.264Z,4.85
2022-09-22T08:05:39.588Z,4.13
2022-09-22T08:08:08.163Z,4.82
2022-09-22T08:10:35.619Z,7.85
2022-09-22T08:13:04.679Z,4.32
2022-09-22T08:15:31.635Z,4.70
2022-09-22T08:17:58.981Z,8.45
2022-09-22T08:20:30.123Z,4.10
2022-09-22T08:23:03.444Z,4.38
2022-09-22T08:25:30.733Z,4.40
2022-09-22T08:27:57.702Z,4.85
2022-09-22T08:30:24.537Z,3.88
2022-09-22T08:32:51.283Z,7.20
2022-09-22T08:35:18.544Z,4.72
2022-09-22T08:37:45.882Z,5.15
2022-09-22T08:40:23.821Z,5.43
2022-09-22T08:42:55.758Z,5.57
2022-09-22T08:45:31.181Z,4.55
2022-09-22T08:48:26.149Z,5.40
2022-09-22T08:51:16.886Z,4.63
2022-09-22T08:53:49.874Z,5.43
2022-09-22T08:56:31.930Z,6.53
2022-09-22T08:59:11.044Z,6.57
2022-09-22T09:02:15.509Z,4.88
2022-09-22T09:05:07.185Z,5.28
2022-09-22T09:08:04.876Z,4.25
2022-09-22T09:10:47.395Z,5.80
2022-09-22T09:13:42.257Z,6.28
2022-09-22T09:16:34.286Z,5.50
2022-09-22T09:19:11.188Z,7.70
2022-09-22T09:21:44.391Z,5.00
2022-09-22T09:27:21.840Z,4.82
2022-09-22T09:30:00.482Z,5.65
2022-09-22T09:32:34.473Z,4.13
2022-09-22T09:35:02.821Z,5.22
2022-09-22T09:37:30.630Z,8.00
2022-09-22T09:40:03.463Z,4.38
2022-09-22T09:42:35.027Z,5.22
2022-09-22T09:45:04.360Z,5.93
2022-09-22T09:47:47.735Z,4.78
2022-09-22T09:50:16.050Z,5.00
2022-09-22T09:52:43.074Z,8.02
2022-09-22T09:55:27.408Z,3.70
2022-09-22T09:58:10.957Z,6.15
2022-09-22T10:00:58.774Z,4.05
2022-09-22T10:03:28.124Z,4.18
2022-09-22T10:06:00.801Z,3.05
2022-09-22T10:08:29.857Z,5.85
2022-09-22T10:10:59.420Z,3.33
2022-09-22T10:13:32.462Z,7.82
2022-09-22T10:16:21.405Z,5.30
2022-09-22T10:19:10.123Z,4.40
2022-09-22T10:21:37.787Z,5.65
2022-09-22T10:24:23.179Z,5.28
2022-09-22T10:26:56.154Z,3.22
2022-09-22T10:29:23.547Z,5.40
2022-09-22T10:31:59.909Z,3.67
2022-09-22T10:34:38.763Z,2.90
2022-09-22T10:37:15.607Z,4.10
2022-09-22T10:39:45.333Z,3.40
2022-09-22T10:42:23.401Z,5.07
2022-09-22T10:44:52.768Z,3.72
2022-09-22T10:47:31.515Z,4.10
2022-09-22T10:50:24.787Z,3.63
2022-09-22T10:53:00.520Z,6.50
2022-09-22T10:55:33.077Z,3.03
2022-09-22T10:58:15.455Z,3.80
2022-09-22T11:00:42.718Z,2.65
2022-09-22T11:03:27.479Z,3.85
2022-09-22T11:06:31.148Z,4.07
2022-09-22T11:09:38.102Z,3.40
2022-09-22T11:12:19.331Z,4.30
2022-09-22T11:14:46.110Z,3.97
2022-09-22T11:17:22.644Z,4.82
2022-09-22T11:19:53.152Z,2.28
2022-09-22T11:22:39.426Z,3.55
2022-09-22T11:25:35.677Z,2.92
2022-09-22T11:28:12.329Z,3.33
2022-09-22T11:30:50.111Z,3.03
2022-09-22T11:33:48.974Z,2.30
2022-09-22T11:36:57.848Z,4.63
2022-09-22T11:39:43.491Z,2.05
2022-09-22T11:42:18.983Z,3.20
2022-09-22T11:45:13.593Z,5.68
2022-09-22T11:47:51.989Z,3.45
2022-09-22T11:50:35.773Z,7.03
2022-09-22T11:53:13.705Z,3.10
2022-09-22T11:56:11.653Z,2.03
2022-09-22T11:58:41.142Z,6.63
2022-09-22T12:01:14.185Z,2.30
2022-09-22T12:03:46.276Z,3.40
2022-09-22T12:06:29.471Z,3.45
2022-09-22T12:09:03.590Z,2.45
2022-09-22T12:11:35.958Z,2.25
2022-09-22T12:14:04.672Z,4.50
2022-09-22T12:17:07.415Z,2.67
2022-09-22T12:19:49.397Z,6.00
2022-09-22T12:22:28.198Z,2.72
2022-09-22T12:24:55.021Z,2.22
2022-09-22T12:27:24.820Z,2.60
2022-09-22T12:30:02.354Z,2.85
2022-09-22T12:32:50.670Z,1.42
2022-09-22T12:35:31.091Z,1.55
2022-09-22T12:38:01.619Z,1.77
2022-09-22T12:40:37.387Z,4.70
2022-09-22T12:43:04.374Z,2.67
2022-09-22T12:45:41.799Z,3.40
2022-09-22T12:48:18.324Z,3.08
2022-09-22T12:50:46.350Z,3.97
2022-09-22T12:53:22.165Z,4.78
2022-09-22T12:55:50.038Z,3.28
2022-09-22T12:58:23.538Z,3.50
2022-09-22T13:00:56.460Z,2.05
2022-09-22T13:03:26.247Z,2.03
2022-09-22T13:08:28.169Z,1.20
2022-09-22T13:10:56.997Z,2.13
2022-09-22T13:13:35.286Z,2.22
2022-09-22T13:16:15.584Z,1.98
2022-09-22T13:18:52.287Z,1.23
2022-09-22T13:21:25.813Z,3.20
2022-09-22T13:23:55.543Z,1.88
2022-09-22T13:29:15.811Z,5.55
2022-09-22T13:31:45.341Z,3.53
2022-09-22T13:34:25.321Z,4.47
2022-09-22T13:36:56.048Z,2.42
2022-09-22T13:41:53.475Z,2.33
2022-09-22T13:44:27.241Z,3.10
2022-09-22T13:46:55.947Z,1.52
2022-09-22T13:49:36.259Z,0.93
2022-09-22T13:52:12.927Z,2.60
2022-09-22T14:00:12.852Z,1.17
2022-09-22T14:02:45.765Z,2.22
2022-09-22T14:05:25.353Z,2.47
2022-09-22T14:08:11.268Z,1.92
2022-09-22T14:10:42.503Z,0.82
2022-09-22T14:13:57.949Z,1.33
2022-09-22T14:16:34.980Z,0.47
2022-09-22T14:19:06.090Z,0.50
2022-09-22T14:21:41.120Z,0.93
2022-09-22T14:24:08.163Z,0.88
2022-09-22T14:26:44.657Z,0.68
2022-09-22T14:29:19.979Z,0.65
2022-09-22T14:31:52.322Z,2.17
2022-09-22T14:34:27.939Z,2.17
2022-09-22T14:36:56.571Z,2.40
2022-09-22T14:39:34.425Z,0.57
2022-09-22T14:42:16.487Z,2.80
2022-09-22T14:44:46.596Z,1.42
2022-09-22T14:47:29.088Z,0.80
2022-09-22T14:50:15.057Z,4.10
2022-09-22T14:52:56.141Z,0.80
2022-09-22T14:55:39.191Z,0.68
2022-09-22T14:58:14.804Z,3.50
2022-09-22T15:01:25.291Z,2.67
2022-09-22T15:04:14.838Z,1.33
2022-09-22T15:06:43.529Z,2.33
2022-09-22T15:09:24.302Z,0.80
2022-09-22T15:12:03.691Z,0.60
2022-09-22T15:14:46.852Z,1.25
2022-09-22T15:17:54.471Z,1.17
2022-09-22T15:20:25.493Z,2.08
2022-09-22T15:22:57.054Z,3.92
2022-09-22T15:25:24.702Z,0.77
2022-09-22T15:27:53.735Z,1.52
2022-09-22T15:30:22.255Z,2.00
2022-09-22T15:32:50.181Z,1.17
2022-09-22T15:35:18.409Z,1.75
2022-09-22T15:37:47.258Z,3.35
2022-09-22T15:40:20.376Z,2.00
2022-09-22T15:43:11.267Z,1.77
2022-09-22T15:45:37.491Z,1.30
2022-09-22T15:48:04.656Z,0.82
2022-09-22T15:50:31.579Z,1.98
2022-09-22T15:52:58.912Z,1.33
2022-09-22T15:55:48.481Z,1.63
2022-09-22T15:58:19.151Z,1.50
2022-09-22T16:00:47.846Z,3.00
2022-09-22T16:03:22.911Z,1.25
2022-09-22T16:05:57.470Z,1.77
2022-09-22T16:08:34.080Z,1.20
2022-09-22T16:11:05.716Z,0.75
2022-09-22T16:14:05.751Z,7.78
2022-09-22T16:16:36.776Z,1.65
2022-09-22T16:19:11.668Z,0.82
2022-09-22T16:21:45.096Z,2.80
2022-09-22T16:24:13.229Z,1.42
2022-09-22T16:26:40.990Z,0.68
2022-09-22T16:29:09.925Z,1.80
2022-09-22T16:31:39.799Z,0.70
2022-09-22T16:34:07.621Z,1.80
2022-09-22T16:40:00.899Z,1.50
2022-09-22T16:55:37.783Z,2.13
2022-09-22T16:58:32.419Z,9.25
2022-09-22T17:04:59.940Z,1.95
2022-09-22T17:07:29.328Z,3.55
2022-09-22T17:09:57.511Z,4.70
2022-09-22T17:12:26.184Z,1.83
2022-09-22T17:14:54.815Z,4.10
2022-09-22T17:17:21.740Z,4.28
2022-09-22T17:19:48.737Z,2.55
2022-09-22T17:22:15.705Z,2.80
2022-09-22T17:24:43.412Z,16.50
2022-09-22T17:27:10.263Z,12.73
2022-09-22T17:29:37.160Z,8.48
2022-09-22T17:32:08.571Z,26.45
2022-09-22T17:37:01.425Z,4.20
2022-09-22T17:39:29.904Z,8.48
2022-09-22T17:41:57.079Z,31.02
2022-09-22T17:44:26.400Z,19.88
2022-09-22T17:47:12.673Z,11.73
2022-09-22T17:49:59.023Z,14.10
2022-09-22T17:52:32.216Z,14.20
2022-09-22T17:55:08.344Z,9.13
2022-09-22T17:57:40.413Z,6.88
2022-09-22T18:00:11.333Z,12.40
2022-09-22T18:08:03.556Z,10.20
2022-09-22T18:10:34.352Z,9.70
2022-09-22T18:13:02.153Z,6.13
2022-09-22T18:15:30.056Z,4.95
2022-09-22T18:17:58.321Z,7.50
2022-09-22T18:20:26.452Z,6.15
2022-09-22T18:22:54.785Z,7.05
2022-09-22T18:25:24.179Z,8.00
2022-09-22T18:27:51.879Z,5.03
2022-09-22T18:30:19.611Z,6.28
2022-09-22T18:32:48.158Z,9.43
2022-09-22T18:35:15.914Z,11.10
2022-09-22T18:37:43.245Z,8.80
2022-09-22T18:40:14.518Z,7.60
2022-09-22T18:42:44.912Z,5.40
2022-09-22T18:47:43.457Z,3.90
2022-09-22T18:50:11.769Z,6.05
2022-09-22T18:52:42.822Z,11.38
2022-09-22T18:55:12.043Z,7.63
2022-09-22T18:57:38.950Z,7.43
2022-09-22T19:00:07.624Z,9.68
2022-09-22T19:02:35.051Z,7.25
2022-09-22T19:05:02.092Z,9.50
2022-09-22T19:07:42.066Z,10.48
2022-09-22T19:10:13.131Z,3.67
2022-09-22T19:12:43.078Z,5.97
2022-09-22T19:17:45.901Z,6.68
2022-09-22T19:20:14.942Z,7.78
2022-09-22T19:22:42.213Z,4.05
2022-09-22T19:25:09.934Z,4.80
2022-09-22T19:27:39.089Z,2.97
2022-09-22T19:30:06.699Z,11.50
2022-09-22T19:32:33.639Z,28.02
2022-09-22T19:35:00.480Z,27.17
2022-09-22T19:37:29.679Z,18.13
2022-09-22T19:39:58.715Z,11.40
2022-09-22T19:42:26.816Z,14.45
2022-09-22T19:45:01.911Z,10.52
2022-09-22T19:47:29.062Z,7.50
2022-09-22T19:49:56.630Z,8.70
2022-09-22T19:52:23.347Z,13.48
2022-09-22T19:54:50.450Z,14.65
2022-09-22T19:57:17.443Z,19.05
2022-09-22T19:59:45.100Z,16.90
2022-09-22T20:02:16.093Z,12.90
2022-09-22T20:04:43.140Z,10.85
2022-09-22T20:07:11.104Z,11.25
2022-09-22T20:09:39.697Z,10.63
2022-09-22T20:12:06.889Z,9.35
2022-09-22T20:14:34.689Z,14.23
2022-09-22T20:17:08.975Z,13.00
2022-09-22T20:19:41.290Z,10.50
2022-09-22T20:22:28.570Z,12.45
2022-09-22T20:25:01.750Z,9.50
2022-09-22T20:27:39.554Z,9.23
2022-09-22T20:30:09.094Z,9.88
2022-09-22T20:32:35.882Z,9.32
2022-09-22T20:35:02.785Z,10.88
2022-09-22T20:37:32.109Z,10.30
2022-09-22T20:40:08.257Z,9.48
2022-09-22T20:42:39.195Z,8.48
2022-09-22T20:45:08.968Z,6.28
2022-09-22T20:47:36.788Z,12.73
2022-09-22T20:50:05.500Z,10.70
2022-09-22T20:52:33.829Z,13.07
2022-09-22T20:55:01.879Z,6.95
2022-09-22T20:57:31.239Z,8.43
2022-09-22T20:59:59.362Z,6.67
2022-09-22T21:02:27.394Z,7.03
2022-09-22T21:04:55.313Z,8.63
2022-09-22T21:07:22.245Z,7.47
2022-09-22T21:10:07.862Z,7.35
2022-09-22T21:12:35.202Z,7.97
2022-09-22T21:15:02.105Z,7.03
2022-09-22T21:17:29.918Z,6.53
2022-09-22T21:19:57.982Z,7.97
2022-09-22T21:22:28.215Z,7.22
2022-09-22T21:24:55.620Z,9.15
2022-09-22T21:27:22.503Z,5.38
2022-09-22T21:29:49.232Z,10.05
2022-09-22T21:32:16.091Z,7.70
2022-09-22T21:34:43.179Z,8.82
2022-09-22T21:37:10.062Z,6.93
2022-09-22T21:39:36.828Z,6.30
2022-09-22T21:42:03.717Z,5.72
2022-09-22T21:44:30.449Z,5.35
2022-09-22T21:46:57.339Z,4.72
2022-09-22T21:49:24.407Z,5.55
2022-09-22T21:51:51.219Z,6.05
2022-09-22T21:54:19.265Z,5.95
2022-09-22T21:56:46.113Z,6.03
2022-09-22T21:59:14.078Z,5.70
2022-09-22T22:01:42.423Z,5.22
2022-09-22T22:04:10.377Z,5.88
2022-09-22T22:06:43.281Z,8.10
2022-09-22T22:09:18.837Z,6.38
2022-09-22T22:11:54.839Z,10.15
2022-09-22T22:14:22.987Z,4.55
2022-09-22T22:16:52.685Z,8.30
2022-09-22T22:19:22.086Z,6.20
2022-09-22T22:21:50.861Z,5.75
2022-09-22T22:24:26.313Z,6.18
2022-09-22T22:27:01.689Z,6.57
2022-09-22T22:29:32.580Z,5.28
2022-09-22T22:31:59.450Z,7.22
2022-09-22T22:34:26.326Z,9.40
2022-09-22T22:36:56.562Z,5.75
2022-09-22T22:39:23.271Z,5.82
2022-09-22T22:41:50.115Z,3.97
2022-09-22T22:44:19.638Z,5.22
2022-09-22T22:46:46.314Z,4.13
2022-09-22T22:49:13.181Z,4.72
2022-09-22T22:51:43.396Z,5.40
2022-09-22T22:54:11.458Z,5.22
2022-09-22T22:56:42.106Z,6.68
2022-09-22T22:59:09.875Z,5.43
2022-09-22T23:03:36.120Z,5.75
2022-09-22T23:06:02.828Z,5.05
2022-09-22T23:08:29.754Z,5.05
2022-09-22T23:11:11.556Z,5.25
2022-09-22T23:13:40.615Z,6.88
2022-09-22T23:16:09.781Z,3.95
2022-09-22T23:18:38.534Z,4.00
2022-09-22T23:21:06.198Z,4.10
2022-09-22T23:23:40.257Z,4.63
2022-09-22T23:26:07.950Z,4.90
2022-09-22T23:28:36.551Z,4.55
2022-09-22T23:31:09.810Z,3.30
2022-09-22T23:33:38.211Z,3.90
2022-09-22T23:36:06.650Z,4.28
2022-09-22T23:38:35.322Z,4.75
2022-09-22T23:41:02.978Z,4.55
2022-09-22T23:43:31.611Z,5.38
2022-09-22T23:45:59.190Z,7.57
2022-09-22T23:48:29.411Z,7.43
2022-09-22T23:53:24.972Z,4.85
2022-09-22T23:55:51.923Z,5.38
2022-09-22T23:58:19.222Z,6.72
